Latest Weather Observations for Rhyll

IDV60801

Issued at 3:32 pm EDT Thursday 15 November 2018 (issued every 10 minutes, with the page automatically refreshed every 10 minutes)

About weather observations | Map of weather stations | Latest weather observations for VIC | Other Formats
Station Details ID: 086373 Name: RHYLL Lat: -38.46 Lon: 145.31 Height: 13.4 m
Data from the previous 72 hours. | See also: Recent months at Rhyll
Date/Time
EDT
Temp
°C
App
Temp
°C
Dew
Point
°C
Rel
Hum
%
Delta-T
°C
Wind Press
QNH
hPa
Press
MSL
hPa
Rain since
9am
mm
Dir  Spd
km/h
Gust
km/h
Spd
kts
Gust
kts
15/03:30pm 16.4 13.9 8.1 58 4.2 S 11 24 6 13 1024.2 1024.2 0.0
15/03:00pm 17.4 14.7 9.1 58 4.3 S 13 26 7 14 1024.3 1024.3 0.0
15/02:30pm 17.5 15.2 8.9 57 4.5 S 11 19 6 10 1024.6 1024.6 0.0
15/02:00pm 16.9 14.4 8.3 57 4.4 S 11 20 6 11 1024.6 1024.6 0.0
15/01:30pm 16.6 14.2 8.6 59 4.1 S 11 22 6 12 1024.8 1024.8 0.0
15/01:00pm 16.1 13.6 8.3 60 3.9 S 11 19 6 10 1024.7 1024.7 0.0
15/12:30pm 16.0 13.0 7.5 57 4.2 S 13 26 7 14 1024.7 1024.7 0.0
15/12:00pm 17.3 15.1 9.2 59 4.2 S 11 24 6 13 1024.8 1024.8 0.0
15/11:30am 16.8 13.8 7.7 55 4.6 S 13 26 7 14 1024.6 1024.6 0.0
15/11:00am 16.9 14.2 7.5 54 4.7 S 11 24 6 13 1024.5 1024.5 0.0
15/10:30am 16.5 13.4 7.2 54 4.6 S 13 20 7 11 1024.5 1024.5 0.0
15/10:00am 16.3 13.6 8.8 61 3.8 S 13 22 7 12 1024.2 1024.2 0.0
15/09:30am 15.9 13.1 10.0 68 3.1 S 15 26 8 14 1023.9 1023.9 0.0
15/09:00am 15.1 12.5 7.6 61 3.7 S 11 20 6 11 1023.6 1023.6 0.0
15/08:30am 15.3 13.1 7.8 61 3.7 S 9 22 5 12 1023.3 1023.3 0.0
15/08:00am 14.5 11.9 7.8 64 3.3 S 11 26 6 14 1022.7 1022.7 0.0
15/07:30am 13.8 10.8 7.8 67 3.0 SSW 13 24 7 13 1022.3 1022.3 0.0
15/07:00am 13.3 10.3 7.5 68 2.8 SSW 13 20 7 11 1022.0 1022.0 0.0
15/06:30am 12.7 10.3 7.2 69 2.7 SW 9 19 5 10 1021.7 1021.7 0.0
15/06:00am 12.2 9.5 7.3 72 2.4 SW 11 17 6 9 1021.3 1021.3 0.0
15/05:30am 12.1 9.2 6.4 68 2.7 SW 11 19 6 10 1021.1 1021.1 0.0
15/05:00am 12.7 9.2 7.0 68 2.7 SW 15 24 8 13 1020.9 1020.9 0.0
15/04:30am 13.3 9.3 8.2 71 2.5 SW 19 30 10 16 1020.4 1020.4 0.0
15/04:00am 13.3 9.4 8.6 73 2.3 SW 19 26 10 14 1020.0 1020.0 0.0
15/03:30am 13.3 11.1 9.5 78 1.9 SW 11 19 6 10 1020.0 1020.0 0.0
15/03:00am 13.1 10.9 9.5 79 1.8 SW 11 19 6 10 1019.8 1019.8 0.0
15/02:30am 13.3 10.5 10.1 81 1.7 SW 15 24 8 13 1019.7 1019.7 0.0
15/02:00am 13.3 11.8 9.0 75 2.2 WSW 7 11 4 6 1019.7 1019.7 0.0
15/01:30am 13.0 11.4 8.9 76 2.1 WSW 7 13 4 7 1019.5 1019.5 0.0
15/01:00am 12.9 11.3 8.6 75 2.1 SW 7 13 4 7 1019.6 1019.6 0.0
15/12:30am 13.3 10.8 8.2 71 2.5 SW 11 17 6 9 1019.5 1019.5 0.0
15/12:00am 13.5 11.6 9.2 75 2.2 SW 9 15 5 8 1019.5 1019.5 0.0
 
Date/Time
EDT
Temp
°C
App
Temp
°C
Dew
Point
°C
Rel
Hum
%
Delta-T
°C
Wind Press
QNH
hPa
Press
MSL
hPa
Rain since
9am
mm
Dir  Spd
km/h
Gust
km/h
Spd
kts
Gust
kts
14/11:30pm 13.5 10.9 9.2 75 2.2 SW 13 20 7 11 1019.3 1019.3 0.0
14/11:00pm 13.6 11.4 9.5 76 2.1 WSW 11 19 6 10 1019.3 1019.3 0.0
14/10:30pm 13.8 12.7 9.8 77 2.1 WSW 6 9 3 5 1019.1 1019.1 0.0
14/10:00pm 14.3 13.6 9.9 75 2.3 W 4 7 2 4 1018.9 1018.9 0.0
14/09:30pm 14.3 13.0 10.1 76 2.2 SW 7 11 4 6 1018.7 1018.7 0.0
14/09:00pm 14.3 12.5 10.7 79 1.9 SW 11 20 6 11 1018.3 1018.3 0.0
14/08:30pm 14.3 12.3 11.5 83 1.5 SW 13 20 7 11 1018.1 1018.1 0.0
14/08:00pm 14.6 12.6 11.4 81 1.7 SW 13 20 7 11 1017.8 1017.8 0.0
14/07:30pm 14.9 13.3 11.5 80 1.8 SW 11 20 6 11 1017.2 1017.2 0.0
14/07:00pm 14.9 13.2 11.3 79 1.9 SW 11 17 6 9 1016.9 1016.9 0.0
14/06:30pm 15.1 12.7 11.5 79 1.9 SW 15 20 8 11 1016.4 1016.4 0.0
14/06:00pm 15.5 13.2 11.7 78 2.1 SW 15 22 8 12 1015.9 1015.9 0.0
14/05:30pm 15.7 13.4 11.9 78 2.1 SW 15 24 8 13 1016.0 1016.0 0.0
14/05:00pm 15.7 14.4 11.3 75 2.4 SW 9 19 5 10 1015.7 1015.7 0.0
14/04:30pm 15.3 14.0 11.1 76 2.2 WSW 9 22 5 12 1015.8 1015.8 0.0
14/04:00pm 15.2 13.1 11.2 77 2.1 SW 13 22 7 12 1015.6 1015.6 0.0
14/03:30pm 15.0 12.5 11.2 78 2.0 SW 15 20 8 11 1015.5 1015.5 0.0
14/03:00pm 15.4 13.3 11.2 76 2.2 SW 13 20 7 11 1015.3 1015.3 0.0
14/02:30pm 14.9 13.0 11.7 81 1.7 SSW 13 20 7 11 1015.4 1015.4 0.0
14/02:00pm 15.1 13.5 11.7 80 1.8 SSW 11 17 6 9 1015.4 1015.4 0.0
14/01:30pm 15.5 14.3 11.7 78 2.1 SSW 9 17 5 9 1015.2 1015.2 0.0
14/01:00pm 15.5 14.8 11.9 79 2.0 SSW 7 11 4 6 1015.2 1015.2 0.0
14/12:30pm 15.7 15.2 12.6 82 1.7 SSW 7 11 4 6 1015.2 1015.2 0.0
14/12:00pm 15.3 15.0 12.8 85 1.4 SSW 6 11 3 6 1015.3 1015.3 0.0
14/11:30am 14.5 13.9 12.2 86 1.2 SSW 7 15 4 8 1015.5 1015.5 0.0
14/11:00am 14.6 13.7 12.5 87 1.1 SSW 9 15 5 8 1015.4 1015.4 0.0
14/10:30am 14.3 13.2 12.0 86 1.2 SW 9 15 5 8 1015.3 1015.3 0.0
14/10:00am 14.0 13.0 12.2 89 1.0 SSW 9 15 5 8 1015.3 1015.3 0.0
14/09:30am 14.0 13.2 12.9 93 0.6 SSW 9 17 5 9 1015.0 1015.0 0.0
14/09:00am 13.8 12.7 13.2 96 0.3 SSW 11 19 6 10 1014.9 1014.9 1.8
14/08:30am 14.0 13.4 13.5 97 0.3 SSW 9 15 5 8 1014.7 1014.7 1.4
14/08:00am 13.9 13.3 13.4 97 0.3 SW 9 17 5 9 1014.5 1014.5 1.2
14/07:30am 13.9 13.3 13.4 97 0.3 SSW 9 17 5 9 1014.2 1014.2 1.0
14/07:00am 14.1 13.2 13.6 97 0.3 SW 11 19 6 10 1014.0 1014.0 0.2
14/06:30am 14.4 14.3 13.8 96 0.3 SW 7 13 4 7 1013.7 1013.7 0.2
14/06:00am 14.4 13.8 13.6 95 0.4 SW 9 19 5 10 1013.3 1013.3 0.2
14/05:30am 14.7 14.7 13.7 94 0.6 WSW 6 9 3 5 1012.9 1012.9 0.2
14/05:00am 14.7 14.7 13.7 94 0.6 WSW 6 9 3 5 1012.7 1012.7 0.2
14/04:30am 14.7 15.1 13.7 94 0.6 WSW 4 6 2 3 1012.6 1012.6 0.2
14/04:00am 14.7 15.9 13.7 94 0.6 CALM 0 4 0 2 1012.4 1012.4 0.2
14/03:30am 14.7 15.1 13.7 94 0.6 W 4 7 2 4 1012.4 1012.4 0.0
14/03:00am 14.8 15.2 13.8 94 0.6 W 4 7 2 4 1012.3 1012.3 0.0
14/02:30am 14.7 14.5 13.6 93 0.6 WSW 7 13 4 7 1012.1 1012.1 0.0
14/02:00am 14.8 14.6 13.5 92 0.7 WSW 7 13 4 7 1012.2 1012.2 0.0
14/01:30am 15.0 15.0 13.7 92 0.7 WSW 6 11 3 6 1012.4 1012.4 0.0
14/01:00am 15.1 14.6 13.8 92 0.7 SW 9 17 5 9 1012.4 1012.4 0.0
14/12:30am 15.3 14.8 13.8 91 0.8 SW 9 15 5 8 1012.5 1012.5 0.0
14/12:00am 15.5 15.3 13.7 89 1.0 W 7 11 4 6 1013.0 1013.0 0.0
 
Date/Time
EDT
Temp
°C
App
Temp
°C
Dew
Point
°C
Rel
Hum
%
Delta-T
°C
Wind Press
QNH
hPa
Press
MSL
hPa
Rain since
9am
mm
Dir  Spd
km/h
Gust
km/h
Spd
kts
Gust
kts
13/11:30pm 15.7 15.2 13.7 88 1.1 SW 9 17 5 9 1012.7 1012.7 0.0
13/11:00pm 15.7 15.7 13.5 87 1.2 SW 6 9 3 5 1012.4 1012.4 0.0
13/10:30pm 16.0 15.5 13.8 87 1.2 SW 9 15 5 8 1012.0 1012.0 0.0
13/10:00pm 16.6 15.4 13.9 84 1.5 WSW 13 20 7 11 1012.0 1012.0 0.0
13/09:30pm 17.1 17.2 13.8 81 1.9 SW 6 9 3 5 1011.6 1011.6 0.0
13/09:00pm 17.3 16.4 13.8 80 2.0 WSW 11 20 6 11 1011.6 1011.6 0.0
13/08:30pm 17.4 16.9 13.7 79 2.1 W 9 17 5 9 1011.2 1011.2 0.0
13/08:00pm 17.3 16.0 13.8 80 2.0 SW 13 19 7 10 1009.9 1009.9 0.0
13/07:30pm 18.0 16.4 13.9 77 2.3 SSW 15 28 8 15 1009.3 1009.3 0.0
13/07:00pm 21.3 18.0 11.6 54 5.4 WSW 20 35 11 19 1008.6 1008.6 0.0
13/06:30pm 25.2 20.8 12.8 46 7.2 N 28 41 15 22 1007.2 1007.2 0.0
13/06:00pm 25.8 20.7 13.0 45 7.5 N 32 41 17 22 1006.4 1006.4 0.0
13/05:30pm 26.2 20.5 13.0 44 7.7 N 35 46 19 25 1006.2 1006.2 0.0
13/05:00pm 25.6 21.5 13.8 48 7.0 NNW 28 35 15 19 1006.3 1006.3 0.0
13/04:30pm 25.8 21.5 13.3 46 7.3 N 28 39 15 21 1006.4 1006.4 0.0
13/04:00pm 26.0 21.0 13.5 46 7.4 N 32 41 17 22 1006.5 1006.5 0.0
13/03:30pm 26.1 22.2 13.2 44 7.5 N 26 43 14 23 1006.7 1006.7 0.0
13/03:00pm 26.6 23.4 13.0 43 8.0 N 22 43 12 23 1007.0 1007.0 0.0
13/02:30pm 26.0 21.6 12.8 44 7.7 N 28 39 15 21 1007.4 1007.4 0.0
13/02:00pm 26.9 22.6 12.2 40 8.5 N 26 44 14 24 1007.8 1007.8 0.0
13/01:30pm 26.0 24.1 14.1 47 7.1 NNE 17 24 9 13 1008.0 1008.0 0.0
13/01:00pm 25.9 23.6 14.7 50 6.7 NNE 20 26 11 14 1008.2 1008.2 0.0
13/12:30pm 24.6 23.2 15.5 57 5.5 NE 17 20 9 11 1008.7 1008.7 0.0
13/12:00pm 23.7 21.1 16.0 62 4.7 ENE 24 28 13 15 1008.9 1008.9 0.0
13/11:30am 23.7 21.1 14.9 57 5.2 ENE 22 28 12 15 1009.5 1009.5 0.0
13/11:00am 21.3 19.5 15.4 69 3.5 ENE 19 22 10 12 1010.0 1010.0 0.0
13/10:30am 20.0 16.7 13.9 68 3.5 NE 24 30 13 16 1010.3 1010.3 0.0
13/10:00am 19.8 19.6 13.7 68 3.5 NE 7 13 4 7 1010.8 1010.8 0.0
13/09:30am 19.2 18.3 13.8 71 3.1 NE 11 17 6 9 1011.1 1011.1 0.0
13/09:00am 18.7 18.9 14.6 77 2.4 ENE 7 13 4 7 1011.4 1011.4 0.0
13/08:30am 18.6 18.6 13.7 73 2.8 NE 6 9 3 5 1011.4 1011.4 0.0
13/08:00am 18.3 18.4 13.8 75 2.6 NE 6 9 3 5 1011.1 1011.1 0.0
13/07:30am 18.4 18.0 11.2 63 3.9 NNW 4 6 2 3 1011.4 1011.4 0.0
13/07:00am 17.7 15.3 11.3 66 3.5 W 15 37 8 20 1011.4 1011.4 0.0
13/06:30am 17.3 16.3 12.4 73 2.7 NW 9 13 5 7 1010.6 1010.6 0.0
13/06:00am 17.4 16.5 12.5 73 2.7 NW 9 13 5 7 1010.2 1010.2 0.0
13/05:30am 18.0 17.0 11.1 64 3.7 NW 7 9 4 5 1010.1 1010.1 0.0
13/05:00am 18.9 17.8 9.9 56 4.8 N 6 7 3 4 1010.0 1010.0 0.0
13/04:30am 19.9 17.6 8.9 49 5.8 NNE 11 15 6 8 1010.0 1010.0 0.0
13/04:00am 19.9 18.0 8.9 49 5.8 N 9 13 5 7 1010.1 1010.1 0.0
13/03:30am 20.1 17.7 8.8 48 5.9 NNE 11 17 6 9 1010.3 1010.3 0.0
13/03:00am 20.1 16.7 9.1 49 5.8 NNE 17 22 9 12 1010.4 1010.4 0.0
13/02:30am 19.6 15.7 10.9 57 4.7 NE 22 28 12 15 1010.7 1010.7 0.0
13/02:00am 19.4 14.5 11.2 59 4.5 NE 28 32 15 17 1010.9 1010.9 0.0
13/01:30am 19.3 14.4 11.3 60 4.4 NE 28 32 15 17 1011.3 1011.3 0.0
13/01:00am 19.4 14.5 11.4 60 4.4 NE 28 32 15 17 1011.9 1011.9 0.0
13/12:30am 18.9 13.7 11.7 63 4.0 ENE 30 33 16 18 1012.2 1012.2 0.0
13/12:00am 19.2 14.5 12.0 63 4.0 ENE 28 32 15 17 1012.5 1012.5 0.0
 
Date/Time
EDT
Temp
°C
App
Temp
°C
Dew
Point
°C
Rel
Hum
%
Delta-T
°C
Wind Press
QNH
hPa
Press
MSL
hPa
Rain since
9am
mm
Dir  Spd
km/h
Gust
km/h
Spd
kts
Gust
kts
12/11:30pm 19.8 15.1 12.1 61 4.3 NE 28 32 15 17 1012.8 1012.8 0.0
12/11:00pm 19.7 14.6 13.2 66 3.7 NE 32 35 17 19 1013.3 1013.3 0.0
12/10:30pm 19.8 15.8 14.2 70 3.2 ENE 28 32 15 17 1013.7 1013.7 0.0
12/10:00pm 19.4 16.9 14.2 72 3.0 ENE 20 24 11 13 1013.9 1013.9 0.0
12/09:30pm 19.6 17.4 14.4 72 3.0 ENE 19 20 10 11 1014.0 1014.0 0.0
12/09:00pm 20.2 18.5 14.6 70 3.3 NE 17 17 9 9 1014.1 1014.1 0.0
12/08:30pm 20.2 18.5 14.8 71 3.2 ENE 17 19 9 10 1014.1 1014.1 0.0
12/08:00pm 20.6 18.1 14.0 66 3.8 NE 20 22 11 12 1014.1 1014.1 0.0
12/07:30pm 20.4 18.1 14.1 67 3.6 ENE 19 20 10 11 1014.2 1014.2 0.0
12/07:00pm 21.1 19.4 14.7 67 3.8 ENE 17 19 9 10 1014.1 1014.1 0.0
12/06:30pm 22.8 22.4 14.1 58 5.1 ENE 9 11 5 6 1014.1 1014.1 0.0
12/06:00pm 24.2 25.0 14.9 56 5.5 E 4 7 2 4 1014.2 1014.2 0.0
12/05:30pm 22.2 22.5 15.1 64 4.2 E 7 11 4 6 1014.3 1014.3 0.0
12/05:00pm 22.7 23.5 15.8 65 4.2 SE 6 7 3 4 1014.6 1014.6 0.0
12/04:30pm 23.7 25.1 15.5 60 4.9 SE 2 6 1 3 1014.9 1014.9 0.0
12/04:00pm 21.8 23.3 15.6 68 3.7 SSE 2 6 1 3 1015.2 1015.2 0.0

Other Formats:

Comma delimited format used in spreadsheet applications
http://www.bom.gov.au/fwo/IDV60801/IDV60801.94892.axf

JavaScript Object Notation format (JSON) in row-major order
http://www.bom.gov.au/fwo/IDV60801/IDV60801.94892.json